sensor_id;sensor_type;location;lat;lon;timestamp;temperature;humidity
27803;DHT22;15182;48.174;11.562;2022-10-17T00:01:49;20.20;94.70
27803;DHT22;15182;48.174;11.562;2022-10-17T00:04:21;20.20;94.90
27803;DHT22;15182;48.174;11.562;2022-10-17T00:06:52;20.10;94.80
27803;DHT22;15182;48.174;11.562;2022-10-17T00:09:23;20.10;94.80
27803;DHT22;15182;48.174;11.562;2022-10-17T00:11:56;20.10;94.80
27803;DHT22;15182;48.174;11.562;2022-10-17T00:14:29;20.10;94.90
27803;DHT22;15182;48.174;11.562;2022-10-17T00:17:01;20.10;94.90
27803;DHT22;15182;48.174;11.562;2022-10-17T00:19:32;20.10;94.90
27803;DHT22;15182;48.174;11.562;2022-10-17T00:22:04;20.00;94.90
27803;DHT22;15182;48.174;11.562;2022-10-17T00:24:35;20.00;94.90
27803;DHT22;15182;48.174;11.562;2022-10-17T00:27:07;20.00;95.00
27803;DHT22;15182;48.174;11.562;2022-10-17T00:29:39;19.90;95.00
27803;DHT22;15182;48.174;11.562;2022-10-17T00:32:10;19.90;95.00
27803;DHT22;15182;48.174;11.562;2022-10-17T00:34:42;19.90;95.00
27803;DHT22;15182;48.174;11.562;2022-10-17T00:37:13;19.90;95.00
27803;DHT22;15182;48.174;11.562;2022-10-17T00:39:44;19.90;95.10
27803;DHT22;15182;48.174;11.562;2022-10-17T00:42:17;19.80;95.00
27803;DHT22;15182;48.174;11.562;2022-10-17T00:45:12;19.80;95.10
27803;DHT22;15182;48.174;11.562;2022-10-17T00:47:50;19.80;95.20
27803;DHT22;15182;48.174;11.562;2022-10-17T00:50:25;19.80;95.50
27803;DHT22;15182;48.174;11.562;2022-10-17T00:53:00;19.80;95.20
27803;DHT22;15182;48.174;11.562;2022-10-17T00:55:34;19.70;95.20
27803;DHT22;15182;48.174;11.562;2022-10-17T00:58:12;19.70;95.20
27803;DHT22;15182;48.174;11.562;2022-10-17T01:00:44;19.70;95.20
27803;DHT22;15182;48.174;11.562;2022-10-17T01:03:17;19.70;95.20
27803;DHT22;15182;48.174;11.562;2022-10-17T01:05:48;19.70;95.20
27803;DHT22;15182;48.174;11.562;2022-10-17T01:08:21;19.60;95.20
27803;DHT22;15182;48.174;11.562;2022-10-17T01:10:58;19.60;95.20
27803;DHT22;15182;48.174;11.562;2022-10-17T01:13:40;19.60;95.30
27803;DHT22;15182;48.174;11.562;2022-10-17T01:16:17;19.60;95.40
27803;DHT22;15182;48.174;11.562;2022-10-17T01:19:01;19.60;95.40
27803;DHT22;15182;48.174;11.562;2022-10-17T01:21:46;19.50;95.40
27803;DHT22;15182;48.174;11.562;2022-10-17T01:24:40;19.50;95.50
27803;DHT22;15182;48.174;11.562;2022-10-17T01:27:28;19.50;95.60
27803;DHT22;15182;48.174;11.562;2022-10-17T01:33:19;19.50;95.60
27803;DHT22;15182;48.174;11.562;2022-10-17T01:35:59;19.50;95.60
27803;DHT22;15182;48.174;11.562;2022-10-17T01:38:35;19.50;95.50
27803;DHT22;15182;48.174;11.562;2022-10-17T01:41:13;19.50;95.60
27803;DHT22;15182;48.174;11.562;2022-10-17T01:43:50;19.50;95.60
27803;DHT22;15182;48.174;11.562;2022-10-17T01:46:29;19.40;95.50
27803;DHT22;15182;48.174;11.562;2022-10-17T01:49:06;19.40;95.60
27803;DHT22;15182;48.174;11.562;2022-10-17T01:51:43;19.40;95.60
27803;DHT22;15182;48.174;11.562;2022-10-17T01:54:20;19.40;96.00
27803;DHT22;15182;48.174;11.562;2022-10-17T01:56:56;19.40;95.70
27803;DHT22;15182;48.174;11.562;2022-10-17T01:59:33;19.40;95.70
27803;DHT22;15182;48.174;11.562;2022-10-17T02:02:10;19.30;95.60
27803;DHT22;15182;48.174;11.562;2022-10-17T02:04:43;19.30;95.60
27803;DHT22;15182;48.174;11.562;2022-10-17T02:07:17;19.30;95.50
27803;DHT22;15182;48.174;11.562;2022-10-17T02:09:48;19.30;95.60
27803;DHT22;15182;48.174;11.562;2022-10-17T02:12:31;19.30;95.60
27803;DHT22;15182;48.174;11.562;2022-10-17T02:15:13;19.30;95.60
27803;DHT22;15182;48.174;11.562;2022-10-17T02:18:04;19.20;95.60
27803;DHT22;15182;48.174;11.562;2022-10-17T02:20:50;19.20;95.60
27803;DHT22;15182;48.174;11.562;2022-10-17T02:23:30;19.20;95.70
27803;DHT22;15182;48.174;11.562;2022-10-17T02:26:11;19.20;95.70
27803;DHT22;15182;48.174;11.562;2022-10-17T02:28:51;19.10;95.60
27803;DHT22;15182;48.174;11.562;2022-10-17T02:31:30;19.10;95.60
27803;DHT22;15182;48.174;11.562;2022-10-17T02:34:11;19.10;95.60
27803;DHT22;15182;48.174;11.562;2022-10-17T02:36:52;19.10;95.70
27803;DHT22;15182;48.174;11.562;2022-10-17T02:39:28;19.10;95.80
27803;DHT22;15182;48.174;11.562;2022-10-17T02:42:02;19.10;95.80
27803;DHT22;15182;48.174;11.562;2022-10-17T02:44:40;19.00;95.80
27803;DHT22;15182;48.174;11.562;2022-10-17T02:47:20;19.00;95.80
27803;DHT22;15182;48.174;11.562;2022-10-17T02:49:56;19.00;95.80
27803;DHT22;15182;48.174;11.562;2022-10-17T02:52:32;19.00;95.80
27803;DHT22;15182;48.174;11.562;2022-10-17T02:55:09;19.00;95.80
27803;DHT22;15182;48.174;11.562;2022-10-17T02:57:47;19.00;95.80
27803;DHT22;15182;48.174;11.562;2022-10-17T03:00:21;19.00;95.80
27803;DHT22;15182;48.174;11.562;2022-10-17T03:02:55;19.00;95.70
27803;DHT22;15182;48.174;11.562;2022-10-17T03:05:28;18.90;95.70
27803;DHT22;15182;48.174;11.562;2022-10-17T03:08:00;18.90;95.80
27803;DHT22;15182;48.174;11.562;2022-10-17T03:10:31;18.90;95.70
27803;DHT22;15182;48.174;11.562;2022-10-17T03:13:03;18.90;96.10
27803;DHT22;15182;48.174;11.562;2022-10-17T03:15:39;18.90;95.70
27803;DHT22;15182;48.174;11.562;2022-10-17T03:18:10;18.90;95.80
27803;DHT22;15182;48.174;11.562;2022-10-17T03:20:43;18.80;95.70
27803;DHT22;15182;48.174;11.562;2022-10-17T03:23:15;18.80;95.80
27803;DHT22;15182;48.174;11.562;2022-10-17T03:25:46;18.80;95.80
27803;DHT22;15182;48.174;11.562;2022-10-17T03:28:18;18.80;95.80
27803;DHT22;15182;48.174;11.562;2022-10-17T03:30:50;18.70;95.80
27803;DHT22;15182;48.174;11.562;2022-10-17T03:33:21;18.70;95.80
27803;DHT22;15182;48.174;11.562;2022-10-17T03:35:54;18.70;95.80
27803;DHT22;15182;48.174;11.562;2022-10-17T03:38:25;18.70;95.80
27803;DHT22;15182;48.174;11.562;2022-10-17T03:40:57;18.60;95.80
27803;DHT22;15182;48.174;11.562;2022-10-17T03:43:29;18.60;95.80
27803;DHT22;15182;48.174;11.562;2022-10-17T03:46:01;18.60;95.80
27803;DHT22;15182;48.174;11.562;2022-10-17T03:48:35;18.60;95.90
27803;DHT22;15182;48.174;11.562;2022-10-17T03:51:09;18.60;95.90
27803;DHT22;15182;48.174;11.562;2022-10-17T03:53:47;18.50;95.90
27803;DHT22;15182;48.174;11.562;2022-10-17T03:56:21;18.50;95.90
27803;DHT22;15182;48.174;11.562;2022-10-17T03:59:14;18.50;95.90
27803;DHT22;15182;48.174;11.562;2022-10-17T04:01:55;18.50;95.90
27803;DHT22;15182;48.174;11.562;2022-10-17T04:04:26;18.50;95.80
27803;DHT22;15182;48.174;11.562;2022-10-17T04:06:59;18.50;95.80
27803;DHT22;15182;48.174;11.562;2022-10-17T04:09:31;18.50;95.90
27803;DHT22;15182;48.174;11.562;2022-10-17T04:12:08;18.40;95.90
27803;DHT22;15182;48.174;11.562;2022-10-17T04:14:40;18.40;95.90
27803;DHT22;15182;48.174;11.562;2022-10-17T04:17:11;18.40;95.90
27803;DHT22;15182;48.174;11.562;2022-10-17T04:19:42;18.40;95.90
27803;DHT22;15182;48.174;11.562;2022-10-17T04:22:17;18.40;95.90
27803;DHT22;15182;48.174;11.562;2022-10-17T04:24:48;18.40;96.00
27803;DHT22;15182;48.174;11.562;2022-10-17T04:27:46;18.30;95.90
27803;DHT22;15182;48.174;11.562;2022-10-17T04:30:17;18.30;95.90
27803;DHT22;15182;48.174;11.562;2022-10-17T04:32:48;18.30;95.90
27803;DHT22;15182;48.174;11.562;2022-10-17T04:35:22;18.30;95.90
27803;DHT22;15182;48.174;11.562;2022-10-17T04:38:04;18.30;95.90
27803;DHT22;15182;48.174;11.562;2022-10-17T04:40:35;18.30;96.00
27803;DHT22;15182;48.174;11.562;2022-10-17T04:43:06;18.30;96.00
27803;DHT22;15182;48.174;11.562;2022-10-17T04:45:38;18.30;96.00
27803;DHT22;15182;48.174;11.562;2022-10-17T04:48:09;18.20;96.00
27803;DHT22;15182;48.174;11.562;2022-10-17T04:50:40;18.20;96.00
27803;DHT22;15182;48.174;11.562;2022-10-17T04:53:31;18.20;95.90
27803;DHT22;15182;48.174;11.562;2022-10-17T04:56:09;18.20;96.00
27803;DHT22;15182;48.174;11.562;2022-10-17T04:58:42;18.10;96.00
27803;DHT22;15182;48.174;11.562;2022-10-17T05:01:15;18.10;96.30
27803;DHT22;15182;48.174;11.562;2022-10-17T05:03:52;18.10;96.00
27803;DHT22;15182;48.174;11.562;2022-10-17T05:06:25;18.10;96.00
27803;DHT22;15182;48.174;11.562;2022-10-17T05:09:17;18.10;96.00
27803;DHT22;15182;48.174;11.562;2022-10-17T05:11:48;18.00;96.00
27803;DHT22;15182;48.174;11.562;2022-10-17T05:14:20;18.00;95.90
27803;DHT22;15182;48.174;11.562;2022-10-17T05:16:51;18.00;96.00
27803;DHT22;15182;48.174;11.562;2022-10-17T05:19:22;18.00;96.10
27803;DHT22;15182;48.174;11.562;2022-10-17T05:21:54;18.00;96.00
27803;DHT22;15182;48.174;11.562;2022-10-17T05:24:27;18.00;96.00
27803;DHT22;15182;48.174;11.562;2022-10-17T05:26:59;17.90;96.00
27803;DHT22;15182;48.174;11.562;2022-10-17T05:29:30;17.90;96.00
27803;DHT22;15182;48.174;11.562;2022-10-17T05:32:09;17.90;96.00
27803;DHT22;15182;48.174;11.562;2022-10-17T05:34:41;17.90;96.00
27803;DHT22;15182;48.174;11.562;2022-10-17T05:37:12;17.90;96.10
27803;DHT22;15182;48.174;11.562;2022-10-17T05:39:50;17.90;96.10
27803;DHT22;15182;48.174;11.562;2022-10-17T05:42:21;17.90;96.10
27803;DHT22;15182;48.174;11.562;2022-10-17T05:44:53;17.80;96.10
27803;DHT22;15182;48.174;11.562;2022-10-17T05:47:24;17.80;96.10
27803;DHT22;15182;48.174;11.562;2022-10-17T05:49:53;17.80;96.10
27803;DHT22;15182;48.174;11.562;2022-10-17T05:52:28;17.80;96.20
27803;DHT22;15182;48.174;11.562;2022-10-17T05:55:16;17.80;96.20
27803;DHT22;15182;48.174;11.562;2022-10-17T05:57:48;17.70;96.20
27803;DHT22;15182;48.174;11.562;2022-10-17T06:00:20;17.70;96.30
27803;DHT22;15182;48.174;11.562;2022-10-17T06:02:58;17.70;96.30
27803;DHT22;15182;48.174;11.562;2022-10-17T06:05:29;17.70;96.40
27803;DHT22;15182;48.174;11.562;2022-10-17T06:08:01;17.70;96.40
27803;DHT22;15182;48.174;11.562;2022-10-17T06:10:37;17.70;96.40
27803;DHT22;15182;48.174;11.562;2022-10-17T06:13:08;17.70;96.40
27803;DHT22;15182;48.174;11.562;2022-10-17T06:15:40;17.70;96.50
27803;DHT22;15182;48.174;11.562;2022-10-17T06:18:12;17.70;96.50
27803;DHT22;15182;48.174;11.562;2022-10-17T06:20:43;17.70;96.50
27803;DHT22;15182;48.174;11.562;2022-10-17T06:23:17;17.70;96.50
27803;DHT22;15182;48.174;11.562;2022-10-17T06:26:00;17.80;96.50
27803;DHT22;15182;48.174;11.562;2022-10-17T06:28:34;17.70;96.60
27803;DHT22;15182;48.174;11.562;2022-10-17T06:31:05;17.70;96.50
27803;DHT22;15182;48.174;11.562;2022-10-17T06:33:38;17.70;96.60
27803;DHT22;15182;48.174;11.562;2022-10-17T06:36:12;17.70;96.60
27803;DHT22;15182;48.174;11.562;2022-10-17T06:38:45;17.70;96.70
27803;DHT22;15182;48.174;11.562;2022-10-17T06:41:26;17.70;96.70
27803;DHT22;15182;48.174;11.562;2022-10-17T06:44:04;17.70;96.70
27803;DHT22;15182;48.174;11.562;2022-10-17T06:46:58;17.70;96.70
27803;DHT22;15182;48.174;11.562;2022-10-17T06:49:29;17.70;96.70
27803;DHT22;15182;48.174;11.562;2022-10-17T06:52:15;17.70;96.80
27803;DHT22;15182;48.174;11.562;2022-10-17T06:55:12;17.80;96.90
27803;DHT22;15182;48.174;11.562;2022-10-17T06:57:56;17.80;96.90
27803;DHT22;15182;48.174;11.562;2022-10-17T07:00:46;17.80;97.10
27803;DHT22;15182;48.174;11.562;2022-10-17T07:03:19;17.80;97.10
27803;DHT22;15182;48.174;11.562;2022-10-17T07:05:52;17.80;97.10
27803;DHT22;15182;48.174;11.562;2022-10-17T07:08:25;17.80;97.20
27803;DHT22;15182;48.174;11.562;2022-10-17T07:10:57;17.90;97.20
27803;DHT22;15182;48.174;11.562;2022-10-17T07:13:30;17.90;97.20
27803;DHT22;15182;48.174;11.562;2022-10-17T07:16:02;17.90;97.20
27803;DHT22;15182;48.174;11.562;2022-10-17T07:18:35;18.00;97.20
27803;DHT22;15182;48.174;11.562;2022-10-17T07:21:08;18.00;97.20
27803;DHT22;15182;48.174;11.562;2022-10-17T07:23:41;18.10;97.20
27803;DHT22;15182;48.174;11.562;2022-10-17T07:26:14;18.10;97.20
27803;DHT22;15182;48.174;11.562;2022-10-17T07:28:50;18.20;97.20
27803;DHT22;15182;48.174;11.562;2022-10-17T07:31:30;18.30;97.30
27803;DHT22;15182;48.174;11.562;2022-10-17T07:34:01;18.30;97.20
27803;DHT22;15182;48.174;11.562;2022-10-17T07:36:32;18.30;97.10
27803;DHT22;15182;48.174;11.562;2022-10-17T07:39:06;18.40;97.10
27803;DHT22;15182;48.174;11.562;2022-10-17T07:41:40;18.40;96.90
27803;DHT22;15182;48.174;11.562;2022-10-17T07:44:13;18.40;96.90
27803;DHT22;15182;48.174;11.562;2022-10-17T07:46:50;18.50;96.90
27803;DHT22;15182;48.174;11.562;2022-10-17T07:49:21;18.60;96.90
27803;DHT22;15182;48.174;11.562;2022-10-17T07:51:52;18.60;96.80
27803;DHT22;15182;48.174;11.562;2022-10-17T07:54:24;18.70;96.60
27803;DHT22;15182;48.174;11.562;2022-10-17T07:56:56;18.70;96.60
27803;DHT22;15182;48.174;11.562;2022-10-17T07:59:29;18.80;96.50
27803;DHT22;15182;48.174;11.562;2022-10-17T08:02:00;18.90;96.60
27803;DHT22;15182;48.174;11.562;2022-10-17T08:04:32;19.00;96.50
27803;DHT22;15182;48.174;11.562;2022-10-17T08:07:04;19.00;96.50
27803;DHT22;15182;48.174;11.562;2022-10-17T08:09:35;19.10;96.20
27803;DHT22;15182;48.174;11.562;2022-10-17T08:12:07;19.20;96.20
27803;DHT22;15182;48.174;11.562;2022-10-17T08:14:39;19.30;96.30
27803;DHT22;15182;48.174;11.562;2022-10-17T08:17:11;19.40;96.10
27803;DHT22;15182;48.174;11.562;2022-10-17T08:19:42;19.50;96.00
27803;DHT22;15182;48.174;11.562;2022-10-17T08:22:14;19.60;95.90
27803;DHT22;15182;48.174;11.562;2022-10-17T08:24:45;19.70;96.30
27803;DHT22;15182;48.174;11.562;2022-10-17T08:27:16;19.80;95.80
27803;DHT22;15182;48.174;11.562;2022-10-17T08:29:53;19.90;95.60
27803;DHT22;15182;48.174;11.562;2022-10-17T08:32:27;20.00;95.60
27803;DHT22;15182;48.174;11.562;2022-10-17T08:35:01;20.20;95.40
27803;DHT22;15182;48.174;11.562;2022-10-17T08:37:32;20.30;95.50
27803;DHT22;15182;48.174;11.562;2022-10-17T08:40:05;20.30;95.50
27803;DHT22;15182;48.174;11.562;2022-10-17T08:42:55;20.40;95.30
27803;DHT22;15182;48.174;11.562;2022-10-17T08:45:50;20.60;95.00
27803;DHT22;15182;48.174;11.562;2022-10-17T08:48:26;20.70;95.10
27803;DHT22;15182;48.174;11.562;2022-10-17T08:51:01;20.80;95.10
27803;DHT22;15182;48.174;11.562;2022-10-17T08:53:38;20.90;94.90
27803;DHT22;15182;48.174;11.562;2022-10-17T08:56:16;21.00;94.80
27803;DHT22;15182;48.174;11.562;2022-10-17T08:58:49;21.10;94.70
27803;DHT22;15182;48.174;11.562;2022-10-17T09:01:35;21.20;94.80
27803;DHT22;15182;48.174;11.562;2022-10-17T09:04:38;21.30;94.60
27803;DHT22;15182;48.174;11.562;2022-10-17T09:07:19;21.40;94.50
27803;DHT22;15182;48.174;11.562;2022-10-17T09:10:07;21.50;94.40
27803;DHT22;15182;48.174;11.562;2022-10-17T09:12:51;21.60;94.40
27803;DHT22;15182;48.174;11.562;2022-10-17T09:15:36;21.70;94.20
27803;DHT22;15182;48.174;11.562;2022-10-17T09:18:14;21.90;93.70
27803;DHT22;15182;48.174;11.562;2022-10-17T09:20:54;22.00;93.70
27803;DHT22;15182;48.174;11.562;2022-10-17T09:23:30;22.10;93.50
27803;DHT22;15182;48.174;11.562;2022-10-17T09:26:07;22.20;93.60
27803;DHT22;15182;48.174;11.562;2022-10-17T09:28:41;22.30;93.50
27803;DHT22;15182;48.174;11.562;2022-10-17T09:31:19;22.40;93.30
27803;DHT22;15182;48.174;11.562;2022-10-17T09:33:56;22.50;92.90
27803;DHT22;15182;48.174;11.562;2022-10-17T09:36:31;22.50;92.80
27803;DHT22;15182;48.174;11.562;2022-10-17T09:39:13;22.60;92.70
27803;DHT22;15182;48.174;11.562;2022-10-17T09:41:50;22.70;92.60
27803;DHT22;15182;48.174;11.562;2022-10-17T09:44:24;22.80;92.30
27803;DHT22;15182;48.174;11.562;2022-10-17T09:47:21;22.90;92.10
27803;DHT22;15182;48.174;11.562;2022-10-17T09:49:58;23.00;91.70
27803;DHT22;15182;48.174;11.562;2022-10-17T09:52:32;23.10;91.60
27803;DHT22;15182;48.174;11.562;2022-10-17T09:55:14;23.20;91.60
27803;DHT22;15182;48.174;11.562;2022-10-17T09:57:52;23.30;91.40
27803;DHT22;15182;48.174;11.562;2022-10-17T10:00:27;23.40;91.20
27803;DHT22;15182;48.174;11.562;2022-10-17T10:03:16;23.50;91.30
27803;DHT22;15182;48.174;11.562;2022-10-17T10:06:05;23.60;91.00
27803;DHT22;15182;48.174;11.562;2022-10-17T10:08:51;23.70;91.10
27803;DHT22;15182;48.174;11.562;2022-10-17T10:11:25;23.80;90.70
27803;DHT22;15182;48.174;11.562;2022-10-17T10:14:22;23.90;90.80
27803;DHT22;15182;48.174;11.562;2022-10-17T10:17:00;24.10;90.80
27803;DHT22;15182;48.174;11.562;2022-10-17T10:19:34;24.10;90.90
27803;DHT22;15182;48.174;11.562;2022-10-17T10:22:21;24.20;90.70
27803;DHT22;15182;48.174;11.562;2022-10-17T10:25:06;24.40;90.40
27803;DHT22;15182;48.174;11.562;2022-10-17T10:27:41;24.60;90.20
27803;DHT22;15182;48.174;11.562;2022-10-17T10:30:21;24.80;90.20
27803;DHT22;15182;48.174;11.562;2022-10-17T10:32:57;25.00;89.20
27803;DHT22;15182;48.174;11.562;2022-10-17T10:35:32;25.20;90.00
27803;DHT22;15182;48.174;11.562;2022-10-17T10:38:14;25.40;89.00
27803;DHT22;15182;48.174;11.562;2022-10-17T10:40:47;25.60;88.20
27803;DHT22;15182;48.174;11.562;2022-10-17T10:43:24;25.90;88.10
27803;DHT22;15182;48.174;11.562;2022-10-17T10:45:58;26.10;87.30
27803;DHT22;15182;48.174;11.562;2022-10-17T10:48:33;26.40;87.40
27803;DHT22;15182;48.174;11.562;2022-10-17T10:51:11;26.50;86.80
27803;DHT22;15182;48.174;11.562;2022-10-17T10:53:49;26.70;85.90
27803;DHT22;15182;48.174;11.562;2022-10-17T10:56:28;26.90;85.40
27803;DHT22;15182;48.174;11.562;2022-10-17T10:59:05;27.10;84.80
27803;DHT22;15182;48.174;11.562;2022-10-17T11:01:47;27.30;84.00
27803;DHT22;15182;48.174;11.562;2022-10-17T11:04:24;27.50;83.40
27803;DHT22;15182;48.174;11.562;2022-10-17T11:07:03;27.70;82.40
27803;DHT22;15182;48.174;11.562;2022-10-17T11:09:45;27.90;82.00
27803;DHT22;15182;48.174;11.562;2022-10-17T11:12:20;28.10;81.70
27803;DHT22;15182;48.174;11.562;2022-10-17T11:15:01;28.30;81.30
27803;DHT22;15182;48.174;11.562;2022-10-17T11:17:41;28.50;81.50
27803;DHT22;15182;48.174;11.562;2022-10-17T11:20:20;28.60;80.30
27803;DHT22;15182;48.174;11.562;2022-10-17T11:22:57;28.80;79.20
27803;DHT22;15182;48.174;11.562;2022-10-17T11:25:36;29.00;78.90
27803;DHT22;15182;48.174;11.562;2022-10-17T11:28:17;29.10;78.10
27803;DHT22;15182;48.174;11.562;2022-10-17T11:30:52;29.20;77.40
27803;DHT22;15182;48.174;11.562;2022-10-17T11:33:31;29.30;77.30
27803;DHT22;15182;48.174;11.562;2022-10-17T11:36:08;29.50;76.20
27803;DHT22;15182;48.174;11.562;2022-10-17T11:38:46;29.60;75.80
27803;DHT22;15182;48.174;11.562;2022-10-17T11:41:28;29.70;74.40
27803;DHT22;15182;48.174;11.562;2022-10-17T11:44:07;29.80;74.00
27803;DHT22;15182;48.174;11.562;2022-10-17T11:46:48;29.90;74.40
27803;DHT22;15182;48.174;11.562;2022-10-17T11:49:23;30.00;74.30
27803;DHT22;15182;48.174;11.562;2022-10-17T11:51:59;30.10;73.30
27803;DHT22;15182;48.174;11.562;2022-10-17T11:54:50;30.10;72.70
27803;DHT22;15182;48.174;11.562;2022-10-17T11:57:41;30.20;72.60
27803;DHT22;15182;48.174;11.562;2022-10-17T12:00:26;30.20;71.90
27803;DHT22;15182;48.174;11.562;2022-10-17T12:03:11;30.30;71.80
27803;DHT22;15182;48.174;11.562;2022-10-17T12:05:54;30.30;71.60
27803;DHT22;15182;48.174;11.562;2022-10-17T12:08:33;30.40;71.20
27803;DHT22;15182;48.174;11.562;2022-10-17T12:11:13;30.40;71.00
27803;DHT22;15182;48.174;11.562;2022-10-17T12:13:53;30.40;70.40
27803;DHT22;15182;48.174;11.562;2022-10-17T12:16:45;30.50;69.30
27803;DHT22;15182;48.174;11.562;2022-10-17T12:19:29;30.50;69.00
27803;DHT22;15182;48.174;11.562;2022-10-17T12:22:04;30.40;68.50
27803;DHT22;15182;48.174;11.562;2022-10-17T12:24:53;30.30;69.90
27803;DHT22;15182;48.174;11.562;2022-10-17T12:27:38;30.20;69.80
27803;DHT22;15182;48.174;11.562;2022-10-17T12:30:25;30.10;68.80
27803;DHT22;15182;48.174;11.562;2022-10-17T12:32:58;30.00;69.40
27803;DHT22;15182;48.174;11.562;2022-10-17T12:35:32;29.80;70.00
27803;DHT22;15182;48.174;11.562;2022-10-17T12:38:27;29.80;70.20
27803;DHT22;15182;48.174;11.562;2022-10-17T12:41:02;29.70;69.20
27803;DHT22;15182;48.174;11.562;2022-10-17T12:43:54;29.50;67.70
27803;DHT22;15182;48.174;11.562;2022-10-17T12:46:47;29.30;67.30
27803;DHT22;15182;48.174;11.562;2022-10-17T12:49:39;29.10;68.00
27803;DHT22;15182;48.174;11.562;2022-10-17T12:52:17;29.00;68.10
27803;DHT22;15182;48.174;11.562;2022-10-17T12:54:58;28.80;67.60
27803;DHT22;15182;48.174;11.562;2022-10-17T12:57:37;28.70;67.70
27803;DHT22;15182;48.174;11.562;2022-10-17T13:00:16;28.60;67.90
27803;DHT22;15182;48.174;11.562;2022-10-17T13:02:52;28.40;67.60
27803;DHT22;15182;48.174;11.562;2022-10-17T13:05:33;28.30;68.70
27803;DHT22;15182;48.174;11.562;2022-10-17T13:08:07;28.20;68.40
27803;DHT22;15182;48.174;11.562;2022-10-17T13:10:49;28.20;68.40
27803;DHT22;15182;48.174;11.562;2022-10-17T13:13:24;28.10;68.80
27803;DHT22;15182;48.174;11.562;2022-10-17T13:16:01;28.00;68.30
27803;DHT22;15182;48.174;11.562;2022-10-17T13:18:34;27.90;69.30
27803;DHT22;15182;48.174;11.562;2022-10-17T13:21:13;27.80;69.70
27803;DHT22;15182;48.174;11.562;2022-10-17T13:23:45;27.80;70.40
27803;DHT22;15182;48.174;11.562;2022-10-17T13:26:21;27.70;70.00
27803;DHT22;15182;48.174;11.562;2022-10-17T13:29:05;27.60;70.00
27803;DHT22;15182;48.174;11.562;2022-10-17T13:31:41;27.50;69.80
27803;DHT22;15182;48.174;11.562;2022-10-17T13:34:19;27.40;69.50
27803;DHT22;15182;48.174;11.562;2022-10-17T13:36:53;27.30;69.00
27803;DHT22;15182;48.174;11.562;2022-10-17T13:39:27;27.30;70.20
27803;DHT22;15182;48.174;11.562;2022-10-17T13:42:03;27.20;69.80
27803;DHT22;15182;48.174;11.562;2022-10-17T13:44:42;27.10;69.80
27803;DHT22;15182;48.174;11.562;2022-10-17T13:47:20;27.00;69.90
27803;DHT22;15182;48.174;11.562;2022-10-17T13:49:54;27.00;71.20
27803;DHT22;15182;48.174;11.562;2022-10-17T13:52:27;26.90;70.60
27803;DHT22;15182;48.174;11.562;2022-10-17T13:55:11;26.80;70.20
27803;DHT22;15182;48.174;11.562;2022-10-17T13:57:48;26.80;70.30
27803;DHT22;15182;48.174;11.562;2022-10-17T14:00:21;26.80;70.80
27803;DHT22;15182;48.174;11.562;2022-10-17T14:02:53;26.70;70.50
27803;DHT22;15182;48.174;11.562;2022-10-17T14:05:26;26.70;70.80
27803;DHT22;15182;48.174;11.562;2022-10-17T14:07:59;26.60;70.90
27803;DHT22;15182;48.174;11.562;2022-10-17T14:10:34;26.60;69.80
27803;DHT22;15182;48.174;11.562;2022-10-17T14:13:13;26.60;69.60
27803;DHT22;15182;48.174;11.562;2022-10-17T14:15:50;26.60;69.70
27803;DHT22;15182;48.174;11.562;2022-10-17T14:18:26;26.50;69.30
27803;DHT22;15182;48.174;11.562;2022-10-17T14:21:00;26.50;68.80
27803;DHT22;15182;48.174;11.562;2022-10-17T14:23:37;26.50;69.10
27803;DHT22;15182;48.174;11.562;2022-10-17T14:26:12;26.50;70.00
27803;DHT22;15182;48.174;11.562;2022-10-17T14:28:48;26.50;69.70
27803;DHT22;15182;48.174;11.562;2022-10-17T14:31:34;26.40;70.20
27803;DHT22;15182;48.174;11.562;2022-10-17T14:34:15;26.40;70.10
27803;DHT22;15182;48.174;11.562;2022-10-17T14:36:53;26.40;70.70
27803;DHT22;15182;48.174;11.562;2022-10-17T14:39:26;26.40;70.60
27803;DHT22;15182;48.174;11.562;2022-10-17T14:41:58;26.40;71.40
27803;DHT22;15182;48.174;11.562;2022-10-17T14:44:32;26.30;70.80
27803;DHT22;15182;48.174;11.562;2022-10-17T14:47:05;26.30;71.30
27803;DHT22;15182;48.174;11.562;2022-10-17T14:49:43;26.30;71.90
27803;DHT22;15182;48.174;11.562;2022-10-17T14:52:31;26.30;72.20
27803;DHT22;15182;48.174;11.562;2022-10-17T14:55:25;26.20;72.30
27803;DHT22;15182;48.174;11.562;2022-10-17T14:57:58;26.20;72.40
27803;DHT22;15182;48.174;11.562;2022-10-17T15:00:30;26.20;72.50
27803;DHT22;15182;48.174;11.562;2022-10-17T15:03:04;26.10;72.80
27803;DHT22;15182;48.174;11.562;2022-10-17T15:05:36;26.10;72.40
27803;DHT22;15182;48.174;11.562;2022-10-17T15:08:11;26.10;72.60
27803;DHT22;15182;48.174;11.562;2022-10-17T15:10:45;26.10;72.90
27803;DHT22;15182;48.174;11.562;2022-10-17T15:13:17;26.00;73.00
27803;DHT22;15182;48.174;11.562;2022-10-17T15:15:50;26.00;72.90
27803;DHT22;15182;48.174;11.562;2022-10-17T15:18:21;26.00;73.20
27803;DHT22;15182;48.174;11.562;2022-10-17T15:20:52;25.90;73.60
27803;DHT22;15182;48.174;11.562;2022-10-17T15:23:25;25.90;73.70
27803;DHT22;15182;48.174;11.562;2022-10-17T15:25:56;25.90;74.10
27803;DHT22;15182;48.174;11.562;2022-10-17T15:28:28;25.80;73.40
27803;DHT22;15182;48.174;11.562;2022-10-17T15:31:01;25.80;73.60
27803;DHT22;15182;48.174;11.562;2022-10-17T15:33:42;25.80;73.30
27803;DHT22;15182;48.174;11.562;2022-10-17T15:36:18;25.70;73.30
27803;DHT22;15182;48.174;11.562;2022-10-17T15:38:51;25.70;72.90
27803;DHT22;15182;48.174;11.562;2022-10-17T15:41:25;25.70;73.00
27803;DHT22;15182;48.174;11.562;2022-10-17T15:43:58;25.60;73.40
27803;DHT22;15182;48.174;11.562;2022-10-17T15:46:31;25.60;73.90
27803;DHT22;15182;48.174;11.562;2022-10-17T15:49:07;25.50;74.50
27803;DHT22;15182;48.174;11.562;2022-10-17T15:51:41;25.50;75.20
27803;DHT22;15182;48.174;11.562;2022-10-17T15:54:15;25.50;75.50
27803;DHT22;15182;48.174;11.562;2022-10-17T15:56:51;25.50;75.90
27803;DHT22;15182;48.174;11.562;2022-10-17T15:59:32;25.40;76.30
27803;DHT22;15182;48.174;11.562;2022-10-17T16:02:12;25.30;76.60
27803;DHT22;15182;48.174;11.562;2022-10-17T16:04:46;25.30;76.90
27803;DHT22;15182;48.174;11.562;2022-10-17T16:07:19;25.20;76.80
27803;DHT22;15182;48.174;11.562;2022-10-17T16:09:51;25.20;77.00
27803;DHT22;15182;48.174;11.562;2022-10-17T16:12:25;25.10;77.40
27803;DHT22;15182;48.174;11.562;2022-10-17T16:15:04;25.00;78.40
27803;DHT22;15182;48.174;11.562;2022-10-17T16:17:37;25.00;78.40